• Join FlightAware (Why Join?)
  • Login
  • US Flag 
05:50AM EDT


 

Airport Tracker/Info


-or-


 

Live Flight TrackerFlight Track Log ✈ N2145X ✈ 15-Nov-2013 ✈ KMKC - KISP

Flight Track Log - Related Links

Times and Time Zones

All times are in EST time to prevent confusion due to time zone crossing. See the N2145X flight status page for this flight to view local times or setup timezone preferences in your user account.

Time Position Orientation Groundspeed Altitude Reporting Facility
EST Latitude Longitude Course Direction KTS MPH feet Rate Location/Type
03:58PM 39.1167 -94.6000 218° Southwest 103 119 1,400  Level Kansas City TRACON
03:59PM 39.0833 -94.6333 218° Southwest 112 129 2,500 900 Climbing Kansas City TRACON
04:00PM 39.0500 -94.6167 159° South 115 132 3,300 840 Climbing Kansas City TRACON
04:01PM 39.0500 -94.5667 90° East 131 151 4,200 780 Climbing Kansas City TRACON
04:02PM 39.0692 -94.5272 58° Northeast 148 170 4,900 600 Climbing Kansas City Center
04:03PM 39.0892 -94.4769 63° Northeast 164 189 5,500 720 Climbing Kansas City Center
04:04PM 39.1117 -94.4158 65° Northeast 169 194 6,400 720 Climbing Kansas City Center
04:05PM 39.1328 -94.3661 61° Northeast 165 190 7,000 600 Climbing Kansas City Center
04:06PM 39.1550 -94.3056 65° Northeast 167 192 7,700 540 Climbing Kansas City Center
04:07PM 39.1764 -94.2556 61° Northeast 167 192 8,200 480 Climbing Kansas City Center
04:08PM 39.2000 -94.1925 64° Northeast 174 200 8,800 360 Climbing Kansas City Center
04:09PM 39.2217 -94.1389 62° Northeast 176 203 9,000 60 Climbing Kansas City Center
04:11PM 39.2392 -93.9961 81° East 194 223 9,000  Level Kansas City Center
04:12PM 39.2514 -93.9283 77° East 201 231 9,000  Level Kansas City Center
04:13PM 39.2675 -93.8519 75° East 197 227 9,000  Level Kansas City Center
04:14PM 39.2781 -93.7878 78° East 193 222 9,000  Level Kansas City Center
04:15PM 39.2908 -93.7219 76° East 192 221 9,000  Level Kansas City Center
04:16PM 39.3042 -93.6414 78° East 194 223 9,000  Level Kansas City Center
04:17PM 39.3144 -93.5753 79° East 191 220 9,000  Level Kansas City Center
04:18PM 39.3253 -93.5083 78° East 191 220 9,000  Level Kansas City Center
04:19PM 39.3353 -93.4397 79° East 195 224 9,000  Level Kansas City Center
04:20PM 39.3469 -93.3703 78° East 198 228 9,000  Level Kansas City Center
04:21PM 39.3594 -93.2911 78° East 192 221 9,000  Level Kansas City Center
04:22PM 39.3700 -93.2233 79° East 193 222 9,000  Level Kansas City Center
04:23PM 39.3817 -93.1569 77° East 192 221 9,000  Level Kansas City Center
04:24PM 39.3919 -93.0903 79° East 191 220 9,000  Level Kansas City Center
04:25PM 39.4025 -93.0214 79° East 196 226 9,100  Climbing Kansas City Center
04:27PM 39.4147 -92.9414 79° East 192 221 9,100  Level Kansas City Center
04:28PM 39.4258 -92.8747 78° East 191 220 9,100  Level Kansas City Center
04:29PM 39.4358 -92.8089 79° East 190 219 9,100  Level Kansas City Center
04:30PM 39.4467 -92.7431 78° East 189 217 9,100  Level Kansas City Center
04:31PM 39.4578 -92.6758 78° East 191 220 9,100  Level Kansas City Center
04:32PM 39.4700 -92.5950 79° East 192 221 9,100  Level Kansas City Center
04:33PM 39.4803 -92.5294 78° East 190 219 9,100  Level Kansas City Center
04:34PM 39.4908 -92.4644 78° East 188 216 9,100  Level Kansas City Center
04:35PM 39.5003 -92.3986 79° East 187 215 9,100  Level Kansas City Center
04:36PM 39.5094 -92.3347 79° East 185 213 9,100  Level Kansas City Center
04:37PM 39.5219 -92.2575 78° East 184 212 9,100  Level Kansas City Center
04:38PM 39.5314 -92.1931 79° East 184 212 9,100  Level Kansas City Center
04:39PM 39.5408 -92.1283 79° East 184 212 9,100  Level Kansas City Center
04:40PM 39.5503 -92.0642 79° East 184 212 9,100  Level Kansas City Center
04:41PM 39.5603 -91.9986 79° East 185 213 9,100  Level Kansas City Center
04:42PM 39.5728 -91.9186 79° East 187 215 9,100  Level Kansas City Center
04:43PM 39.5828 -91.8522 79° East 189 217 9,100  Level Kansas City Center
04:44PM 39.5917 -91.7872 80° East 188 216 9,100  Level Kansas City Center
04:45PM 39.6014 -91.7211 79° East 187 215 9,100  Level Kansas City Center
04:46PM 39.6125 -91.6433 79° East 187 215 9,100  Level Kansas City Center
04:47PM 39.6219 -91.5767 80° East 187 215 9,100  Level Kansas City Center
04:48PM 39.6303 -91.5097 81° East 189 217 9,100  Level Kansas City Center
04:49PM 39.6394 -91.4433 80° East 188 216 9,100  Level Kansas City Center
04:50PM 39.6486 -91.3764 80° East 189 217 9,100  Level Kansas City Center
04:51PM 39.6592 -91.3050 79° East 189 217 9,100  Level Kansas City Center
04:52PM 39.6686 -91.2383 80° East 189 217 9,100  Level Kansas City Center
04:53PM 39.6783 -91.1706 79° East 190 219 9,100  Level Kansas City Center
04:54PM 39.6883 -91.0911 81° East 188 216 9,100  Level Kansas City Center
04:55PM 39.6981 -91.0256 79° East 186 214 9,100  Level Kansas City Center
04:56PM 39.7067 -90.9586 80° East 187 215 9,100  Level Kansas City Center
04:58PM 39.7172 -90.8908 79° East 190 219 9,100  Level Kansas City Center
04:59PM 39.7261 -90.8267 80° East 185 213 9,100  Level Kansas City Center
05:00PM 39.7353 -90.7619 80° East 183 211 9,100  Level Kansas City Center
05:01PM 39.7453 -90.6819 81° East 186 214 9,100 -60 Level Kansas City Center
05:02PM 39.7533 -90.6186 81° East 186 214 9,000 -60 Descending Kansas City Center
05:03PM 39.7633 -90.5517 79° East 188 216 9,000  Level Kansas City Center
05:04PM 39.7725 -90.4839 80° East 190 219 9,000  Level Kansas City Center
05:05PM 39.7814 -90.4186 80° East 186 214 9,000  Level Kansas City Center
05:06PM 39.7922 -90.3397 80° East 185 213 9,000  Level Kansas City Center
05:07PM 39.8017 -90.2736 79° East 186 214 9,000  Level Kansas City Center
05:08PM 39.8097 -90.2086 81° East 184 212 9,000  Level Kansas City Center
05:09PM 39.8189 -90.1442 79° East 182 209 9,000  Level Kansas City Center
05:10PM 39.8278 -90.0767 80° East 186 214 9,000  Level Kansas City Center
05:11PM 39.8378 -89.9989 80° East 185 213 9,000  Level Kansas City Center
05:12PM 39.8464 -89.9336 80° East 184 212 9,000  Level Kansas City Center
05:13PM 39.8550 -89.8689 80° East 182 209 9,000  Level Kansas City Center
05:14PM 39.8642 -89.8050 79° East 182 209 9,000  Level Kansas City Center
05:15PM 39.8742 -89.7408 79° East 181 208 9,000  Level Kansas City Center
05:16PM 39.8822 -89.6781 80° East 179 206 9,000  Level Kansas City Center
05:17PM 39.8928 -89.6025 80° East 178 205 9,000  Level Kansas City Center
05:18PM 39.8989 -89.5367 83° East 180 207 9,000  Level Kansas City Center
05:19PM 39.9058 -89.4711 82° East 182 209 9,000  Level Kansas City Center
05:20PM 39.9125 -89.4069 82° East 181 208 9,000  Level Kansas City Center
05:21PM 39.9206 -89.3431 81° East 179 206 9,000 180 Level Kansas City Center
05:22PM 39.9292 -89.2822 80° East 175 201 9,400 480 Climbing Kansas City Center
05:23PM 39.9392 -89.2139 79° East 163 188 10,100 480 Climbing Kansas City Center
05:24PM 39.9475 -89.1564 79° East 162 186 10,500 360 Climbing Kansas City Center
05:25PM 39.9547 -89.0967 81° East 164 189 10,900 240 Climbing Kansas City Center
05:26PM 39.9622 -89.0358 81° East 168 193 11,100 60 Climbing Kansas City Center
05:28PM 39.9694 -88.9672 82° East 183 211 11,100  Level Kansas City Center
05:29PM 39.9786 -88.8978 80° East 192 221 11,100 -60 Level Kansas City Center
05:30PM 39.9886 -88.8161 81° East 192 221 11,000  Descending Kansas City Center
05:31PM 39.9969 -88.7500 81° East 187 215 11,100  Climbing Kansas City Center
05:32PM 40.0042 -88.6833 82° East 187 215 11,000  Descending Kansas City Center
05:33PM 40.0133 -88.6153 80° East 189 217 11,100  Climbing Kansas City Center
05:34PM 40.0175 -88.5514 85° East 181 208 11,100 -60 Level Kansas City Center
05:35PM 40.0261 -88.4856 80° East 182 209 11,000 -60 Descending Kansas City Center
05:36PM 40.0339 -88.4075 83° East 182 209 11,000  Level Kansas City Center
05:37PM 40.0406 -88.3414 82° East 182 209 11,100  Climbing Kansas City Center
05:38PM 40.0486 -88.2758 81° East 183 211 11,000 -60 Descending Kansas City Center
05:39PM 40.0544 -88.2108 83° East 182 209 11,000  Level Kansas City Center
05:40PM 40.0642 -88.1425 79° East 184 212 11,100  Climbing Kansas City Center
05:41PM 40.0697 -88.0814 83° East 179 206 11,000  Descending Kansas City Center
05:42PM 40.0792 -88.0022 81° East 181 208 11,100  Climbing Kansas City Center
05:43PM 40.0872 -87.9358 81° East 185 213 11,100  Level Kansas City Center
05:44PM 40.0997 -87.8425 80° East 182 209 11,100 -60 Level Chicago Center
05:45PM 40.1094 -87.7692 80° East 187 215 11,000 -60 Descending Chicago Center
05:48PM 40.1233 -87.6381 82° East 185 213 11,000  Level Chicago Center
05:49PM 40.1311 -87.5722 81° East 185 213 11,100  Climbing Chicago Center
05:50PM 40.1389 -87.5075 81° East 183 211 11,100  Level Chicago Center
05:51PM 40.1475 -87.4419 80° East 183 211 11,100  Level Chicago Center
05:52PM 40.1561 -87.3656 82° East 180 207 11,100  Level Chicago Center
05:53PM 40.1633 -87.3008 82° East 180 207 11,100  Level Chicago Center
05:54PM 40.1719 -87.2347 80° East 184 212 11,100 -60 Level Chicago Center
05:55PM 40.1786 -87.1697 82° East 183 211 11,000  Descending Chicago Center
05:56PM 40.1850 -87.1050 83° East 181 208 11,100  Climbing Chicago Center
05:57PM 40.1942 -87.0283 81° East 179 206 11,100  Level Chicago Center
05:58PM 40.2017 -86.9631 81° East 183 211 11,100  Level Chicago Center
05:59PM 40.2081 -86.8975 83° East 183 211 11,100 -60 Level Chicago Center
06:00PM 40.2150 -86.8308 82° East 185 213 11,000  Descending Chicago Center
06:01PM 40.2231 -86.7575 82° East 183 211 11,100  Climbing Chicago Center
06:02PM 40.2292 -86.6931 83° East 181 208 11,100 -60 Level Chicago Center
06:03PM 40.2344 -86.6272 84° East 181 208 11,000  Descending Chicago Center
06:04PM 40.2419 -86.5636 81° East 180 207 11,100  Climbing Chicago Center
06:05PM 40.2483 -86.4992 83° East 179 206 11,100  Level Chicago Center
06:06PM 40.2564 -86.4186 83° East 182 209 11,100 -60 Level Chicago Center
06:07PM 40.2628 -86.3514 83° East 187 215 11,000 -60 Descending Chicago Center
06:08PM 40.2686 -86.2861 83° East 185 213 11,000  Level Chicago Center
06:09PM 40.2728 -86.2169 85° East 187 215 11,000  Level Chicago Center
06:10PM 40.2789 -86.1492 83° East 189 217 11,000  Level Chicago Center
06:11PM 40.2839 -86.0683 85° East 187 215 11,000  Level Chicago Center
06:12PM 40.2864 -86.0025 87° East 185 213 11,000  Level Chicago Center
06:13PM 40.2917 -85.9350 84° East 184 212 11,100  Climbing Chicago Center
06:14PM 40.2972 -85.8694 84° East 184 212 11,100  Level Chicago Center
06:15PM 40.3094 -85.8036 76° East 186 214 11,100  Level Chicago Center
06:17PM 40.3231 -85.7389 75° East 186 214 11,100  Level Chicago Center
06:18PM 40.3339 -85.6614 80° East 183 211 11,100  Level Chicago Center
06:19PM 40.3408 -85.5953 82° East 183 211 11,100 -60 Level Chicago Center
06:20PM 40.3444 -85.5283 86° East 186 214 11,000 -60 Descending Chicago Center
06:21PM 40.3492 -85.4586 85° East 190 219 11,000  Level Chicago Center
06:22PM 40.3547 -85.3906 84° East 183 211 11,000  Level Indianapolis Center
06:23PM 40.3611 -85.3244 83° East 183 211 11,000  Level Indianapolis Center
06:24PM 40.3681 -85.2578 82° East 184 212 11,000  Level Indianapolis Center
06:25PM 40.3756 -85.1772 83° East 185 213 11,100  Climbing Indianapolis Center
06:26PM 40.3817 -85.1128 83° East 183 211 11,100  Level Indianapolis Center
06:27PM 40.3864 -85.0481 85° East 181 208 11,100  Level Indianapolis Center
06:28PM 40.3922 -84.9817 83° East 181 208 11,100  Level Indianapolis Center
06:29PM 40.3978 -84.9178 83° East 180 207 11,100  Level Indianapolis Center
06:30PM 40.4036 -84.8375 85° East 182 209 11,100  Level Indianapolis Center
06:31PM 40.4094 -84.7714 83° East 182 209 11,100  Level Indianapolis Center
06:32PM 40.4147 -84.7061 84° East 182 209 11,100  Level Indianapolis Center
06:33PM 40.4197 -84.6400 84° East 181 208 11,100  Level Indianapolis Center
06:34PM 40.4256 -84.5747 83° East 181 208 11,100  Level Indianapolis Center
06:35PM 40.4317 -84.5092 83° East 181 208 11,100  Level Indianapolis Center
06:36PM 40.4375 -84.4311 84° East 180 207 11,100  Level Indianapolis Center
06:37PM 40.4444 -84.3647 82° East 182 209 11,100  Level Indianapolis Center
06:38PM 40.4492 -84.2992 85° East 181 208 11,100  Level Indianapolis Center
06:39PM 40.4558 -84.2322 83° East 184 212 11,100  Level Indianapolis Center
06:40PM 40.4597 -84.1658 86° East 182 209 11,100  Level Indianapolis Center
06:41PM 40.4653 -84.0969 84° East 187 215 11,100  Level Indianapolis Center
06:42PM 40.4711 -84.0289 84° East 188 216 11,100  Level Indianapolis Center
06:43PM 40.4769 -83.9497 84° East 183 211 11,100  Level Indianapolis Center
06:44PM 40.4814 -83.8814 85° East 186 214 11,100  Level Indianapolis Center
06:45PM 40.4858 -83.8153 85° East 183 211 11,100  Level Indianapolis Center
06:47PM 40.4903 -83.7481 85° East 184 212 11,100  Level Indianapolis Center
06:48PM 40.4961 -83.6806 83° East 185 213 11,100  Level Indianapolis Center
06:49PM 40.5003 -83.6136 85° East 184 212 11,100  Level Indianapolis Center
06:50PM 40.5067 -83.5322 84° East 185 213 11,100  Level Indianapolis Center
06:51PM 40.5114 -83.4644 85° East 186 214 11,100 -60 Level Indianapolis Center
06:52PM 40.5169 -83.3986 84° East 182 209 11,000 -60 Descending Indianapolis Center
06:53PM 40.5211 -83.3336 85° East 180 207 11,000  Level Indianapolis Center
06:54PM 40.5256 -83.2681 85° East 180 207 11,000  Level Indianapolis Center
06:55PM 40.5289 -83.2019 86° East 182 209 11,000  Level Indianapolis Center
06:56PM 40.5325 -83.1336 86° East 177 204 11,100  Climbing Indianapolis Center
06:57PM 40.5372 -83.0664 85° East 182 209 11,100  Level Indianapolis Center
06:58PM 40.5419 -82.9869 86° East 183 211 11,100  Level Indianapolis Center
06:59PM 40.5464 -82.9203 85° East 183 211 11,100  Level Indianapolis Center
07:00PM 40.5514 -82.8544 84° East 180 207 11,100  Level Indianapolis Center
07:01PM 40.5558 -82.7875 85° East 182 209 11,100  Level Indianapolis Center
07:02PM 40.5600 -82.7222 85° East 179 206 11,100  Level Indianapolis Center
07:03PM 40.5633 -82.6558 86° East 181 208 11,100  Level Indianapolis Center
07:04PM 40.5664 -82.5894 87° East 181 208 11,100  Level Indianapolis Center
07:05PM 40.5703 -82.5217 86° East 183 211 11,100  Level Indianapolis Center
07:06PM 40.5750 -82.4433 85° East 183 211 11,100  Level Indianapolis Center
07:08PM 40.5831 -82.3428 84° East 183 211 11,100  Level Cleveland Center
07:09PM 40.5878 -82.2653 85° East 182 209 11,100  Level Cleveland Center
07:10PM 40.5911 -82.1992 86° East 181 208 11,100  Level Cleveland Center
07:11PM 40.5942 -82.1333 86° East 180 207 11,100  Level Cleveland Center
07:12PM 40.5989 -82.0667 85° East 182 209 11,100  Level Cleveland Center
07:13PM 40.6025 -82.0006 86° East 182 209 11,100  Level Cleveland Center
07:14PM 40.6064 -81.9328 86° East 185 213 11,100  Level Cleveland Center
07:15PM 40.6111 -81.8653 85° East 184 212 11,100  Level Cleveland Center
07:16PM 40.6150 -81.7978 86° East 183 211 11,100  Level Cleveland Center
07:17PM 40.6203 -81.7186 85° East 184 212 11,100  Level Cleveland Center
07:18PM 40.6239 -81.6511 86° East 184 212 11,100  Level Cleveland Center
07:19PM 40.6283 -81.5842 85° East 183 211 11,100  Level Cleveland Center
07:20PM 40.6347 -81.5169 83° East 183 211 11,100  Level Cleveland Center
07:21PM 40.6408 -81.4492 83° East 185 213 11,100  Level Cleveland Center
07:22PM 40.6469 -81.3803 83° East 188 216 11,100  Level Cleveland Center
07:23PM 40.6517 -81.3119 85° East 186 214 11,100  Level Cleveland Center
07:24PM 40.6569 -81.2322 85° East 186 214 11,100  Level Cleveland Center
07:25PM 40.6608 -81.1628 86° East 188 216 11,100  Level Cleveland Center
07:26PM 40.6642 -81.0947 86° East 186 214 11,100  Level Cleveland Center
07:27PM 40.6678 -81.0356 85° East 184 212 11,100  Level Cleveland Center
07:28PM 40.6708 -80.9533 87° East 186 214 11,100  Level Cleveland Center
07:29PM 40.6747 -80.8850 86° East 187 215 11,100  Level Cleveland Center
07:30PM 40.6753 -80.8178 89° East 186 214 11,100  Level Cleveland Center
07:31PM 40.6819 -80.7508 82° East 185 213 11,100  Level Cleveland Center
07:33PM 40.7022 -80.6772 70° East 187 215 11,100  Level Cleveland Center
07:34PM 40.7222 -80.6139 67° East 186 214 11,100  Level Cleveland Center
07:35PM 40.7408 -80.5475 70° East 191 220 11,100  Level Cleveland Center
07:36PM 40.7653 -80.4861 62° Northeast 188 216 11,100  Level Cleveland Center
07:37PM 40.7900 -80.4239 62° Northeast 189 217 11,100  Level Cleveland Center
07:38PM 40.8142 -80.3631 62° Northeast 187 215 11,100  Level Cleveland Center
07:39PM 40.8411 -80.2944 63° Northeast 189 217 11,100  Level Cleveland Center
07:40PM 40.8664 -80.2278 63° Northeast 188 216 11,100  Level Cleveland Center
07:41PM 40.8858 -80.1725 65° Northeast 191 220 11,100  Level Cleveland Center
07:42PM 40.9094 -80.1094 64° Northeast 192 221 11,100  Level Cleveland Center
07:43PM 40.9361 -80.0325 65° Northeast 193 222 11,100  Level Cleveland Center
07:44PM 40.9578 -79.9678 66° East 192 221 11,100  Level Cleveland Center
07:45PM 40.9767 -79.9028 69° East 190 219 11,100  Level Cleveland Center
07:46PM 40.9967 -79.8369 68° East 192 221 11,100  Level Cleveland Center
07:47PM 41.0153 -79.7711 69° East 191 220 11,100  Level Cleveland Center
07:48PM 41.0344 -79.7044 69° East 193 222 11,100  Level Cleveland Center
07:49PM 41.0539 -79.6225 73° East 194 223 11,100 -60 Level Cleveland Center
07:50PM 41.0689 -79.5522 74° East 197 227 11,000  Descending Cleveland Center
07:51PM 41.0839 -79.4856 73° East 191 220 11,100  Climbing Cleveland Center
07:52PM 41.1006 -79.4164 72° East 196 226 11,100  Level Cleveland Center
07:53PM 41.1181 -79.3481 71° East 197 227 11,100  Level Cleveland Center
07:54PM 41.1156 -79.2786 93° East 189 217 11,100  Level Cleveland Center
07:55PM 41.1100 -79.1961 95° East 187 215 11,100  Level Cleveland Center
07:56PM 41.1058 -79.1294 95° East 182 209 11,100  Level Cleveland Center
07:57PM 41.0992 -79.0597 97° East 188 216 11,100  Level Cleveland Center
07:58PM 41.0956 -78.9881 94° East 194 223 11,100  Level Cleveland Center
07:59PM 41.0919 -78.9147 94° East 198 228 11,100  Level Cleveland Center
08:00PM 41.0903 -78.8433 92° East 195 224 11,100  Level Cleveland Center
08:01PM 41.0889 -78.7572 91° East 194 223 11,100  Level Cleveland Center
08:02PM 41.0875 -78.6872 91° East 192 221 11,100  Level Cleveland Center
08:04PM 41.0861 -78.6178 91° East 190 219 11,100  Level Cleveland Center
08:05PM 41.0794 -78.5506 97° East 184 212 11,100 -60 Level Cleveland Center
08:06PM 41.0706 -78.4828 100° East 186 214 11,000 -60 Descending Cleveland Center
08:07PM 41.0622 -78.4153 99° East 187 215 11,000  Level Cleveland Center
08:08PM 41.0519 -78.3331 99° East 188 216 11,100 -60 Climbing Cleveland Center
08:09PM 41.0453 -78.2653 97° East 188 216 10,900 -420 Descending Cleveland Center
08:10PM 41.0400 -78.1989 96° East 184 212 10,300 -540 Descending Cleveland Center
08:11PM 41.0364 -78.1297 94° East 188 216 9,800 -540 Descending Cleveland Center
08:12PM 41.0303 -78.0642 97° East 182 209 9,300 -420 Descending Cleveland Center
08:13PM 41.0242 -77.9792 95° East 193 222 9,000 -180 Descending Cleveland Center
08:14PM 41.0161 -77.9056 98° East 200 230 9,000  Level Cleveland Center
08:15PM 41.0064 -77.8314 100° East 205 236 9,000  Level Cleveland Center
08:16PM 40.9975 -77.7578 99° East 205 236 9,000  Level Cleveland Center
08:17PM 40.9878 -77.6858 100° East 200 230 9,000  Level Cleveland Center
08:18PM 40.9731 -77.6011 103° East 199 229 9,000  Level Cleveland Center
08:19PM 40.9603 -77.5256 103° East 198 228 9,000  Level New York Center
08:20PM 40.9519 -77.4558 99° East 198 228 9,000  Level New York Center
08:21PM 40.9456 -77.3839 97° East 198 228 9,000  Level New York Center
08:22PM 40.9386 -77.3172 98° East 198 228 9,000  Level New York Center
08:23PM 40.9303 -77.2450 99° East 198 228 9,000  Level New York Center
08:24PM 40.9194 -77.1725 101° East 198 228 9,000  Level New York Center
08:25PM 40.9106 -77.1058 100° East 198 228 9,000  Level New York Center
08:26PM 40.9042 -77.0336 97° East 198 228 9,000  Level New York Center
08:27PM 40.8950 -76.9669 100° East 193 222 9,000  Level New York Center
08:28PM 40.8847 -76.8864 100° East 193 222 9,000  Level New York Center
08:29PM 40.8797 -76.8228 96° East 193 222 9,000  Level New York Center
08:30PM 40.8706 -76.7533 100° East 198 228 9,000  Level New York Center
08:31PM 40.8597 -76.6783 101° East 193 222 9,000  Level New York Center
08:32PM 40.8508 -76.6064 99° East 193 222 9,000  Level New York Center
08:33PM 40.8417 -76.5369 100° East 193 222 9,000  Level New York Center
08:34PM 40.8342 -76.4758 99° East 183 211 9,000  Level New York Center
08:35PM 40.8250 -76.4092 100° East 183 211 9,000  Level New York Center
08:36PM 40.8119 -76.3342 103° East 183 211 9,000  Level New York Center
08:37PM 40.8025 -76.2675 101° East 183 211 9,000  Level New York Center
08:38PM 40.7911 -76.1981 102° East 183 211 9,000  Level New York Center
08:39PM 40.7814 -76.1372 102° East 183 211 9,000  Level New York Center
08:40PM 40.7697 -76.0703 103° East 183 211 9,000  Level New York Center
08:41PM 40.7586 -75.9956 101° East 183 211 9,000  Level New York Center
08:42PM 40.7469 -75.9289 103° East 183 211 9,100  Climbing New York Center
08:43PM 40.7333 -75.8594 104° East 183 211 9,100 -180 Level New York Center
08:44PM 40.7233 -75.8011 103° East 183 211 8,800 -480 Descending New York Center
08:45PM 40.7100 -75.7181 102° East 194 223 8,200 -600 Descending New York Center
08:46PM 40.7092 -75.6414 91° East 203 234 7,700 -360 Descending New York Center
08:47PM 40.7039 -75.5669 95° East 203 234 7,500 -120 Descending New York Center
08:48PM 40.7022 -75.5039 92° East 198 228 7,500  Level New York Center
08:49PM 40.6986 -75.4353 94° East 198 228 7,500  Level New York Center
08:50PM 40.6931 -75.3664 96° East 198 228 7,500  Level New York Center
08:51PM 40.6917 -75.2953 91° East 198 228 7,500  Level New York Center
08:52PM 40.6900 -75.2267 92° East 198 228 7,600  Climbing New York Center
08:54PM 40.6833 -75.1000 94° East 190 219 7,500  Descending New York TRACON
08:55PM 40.6833 -75.0333 90° East 193 222 7,600  Climbing New York TRACON
08:56PM 40.6833 -74.9667 90° East 191 220 7,500  Descending New York TRACON
08:57PM 40.6833 -74.8833 90° East 192 221 7,600  Climbing New York TRACON
08:58PM 40.6833 -74.8167 90° East 194 223 7,600  Level New York TRACON
08:59PM 40.6833 -74.7500 90° East 192 221 7,600 -60 Level New York TRACON
09:00PM 40.6833 -74.6667 90° East 193 222 7,500  Descending New York TRACON
09:01PM 40.6667 -74.6000 108° East 192 221 7,600  Climbing New York TRACON
09:02PM 40.6833 -74.5333 72° East 194 223 7,600  Level New York TRACON
09:03PM 40.6833 -74.4667 90° East 195 224 7,600 -60 Level New York TRACON
09:04PM 40.6833 -74.4000 90° East 190 219 7,500 -60 Descending New York TRACON
09:05PM 40.6667 -74.3333 108° East 189 217 7,500  Level New York TRACON
09:06PM 40.6667 -74.2667 90° East 184 212 7,500  Level New York TRACON
09:07PM 40.6500 -74.2000 108° East 194 223 7,500  Level New York TRACON
09:08PM 40.6500 -74.1167 90° East 191 220 7,500  Level New York TRACON
09:09PM 40.6500 -74.0500 90° East 194 223 7,600  Climbing New York TRACON
09:10PM 40.6333 -73.9833 108° East 193 222 7,500  Descending New York TRACON
09:11PM 40.6333 -73.9167 90° East 193 222 7,600 -300 Climbing New York TRACON
09:12PM 40.6333 -73.8333 90° East 186 214 6,900 -600 Descending New York TRACON
09:13PM 40.6333 -73.7833 90° East 170 196 6,500 -540 Descending New York TRACON
09:14PM 40.6333 -73.7000 90° East 194 223 5,900 -480 Descending New York TRACON
09:15PM 40.6167 -73.6167 105° East 197 227 5,500 -480 Descending New York TRACON
09:16PM 40.6167 -73.5500 90° East 190 219 5,000 -540 Descending New York TRACON
09:17PM 40.6167 -73.4833 90° East 190 219 4,500 -540 Descending New York TRACON
09:18PM 40.6167 -73.4167 90° East 201 231 4,000 -540 Descending New York TRACON
09:19PM 40.6333 -73.3500 72° East 200 230 3,600 -300 Descending New York TRACON
09:20PM 40.6500 -73.2667 75° East 190 219 3,500 -240 Descending New York TRACON
09:21PM 40.6667 -73.2167 66° East 190 219 3,100 -300 Descending New York TRACON
09:22PM 40.7000 -73.1500 57° Northeast 172 198 3,000 -60 Descending New York TRACON
09:23PM 40.7167 -73.1000 66° East 175 201 3,000 -300 Level New York TRACON
09:24PM 40.7500 -73.0500 49° Northeast 160 184 2,500 -480 Descending New York TRACON
09:25PM 40.7833 -73.0167 37° Northeast 153 176 2,100 -360 Descending New York TRACON
09:26PM 40.8167 -72.9833 37° Northeast 145 167 1,900 -360 Descending New York TRACON
09:27PM 40.8333 -73.0167 303° West 112 129 1,500 -360 Descending New York TRACON
09:28PM 40.8333 -73.0500 270° West 104 120 1,200 -420 Descending New York TRACON
09:29PM 40.8167 -73.0667 217° Southwest 76 87 700 -420 Descending New York TRACON
09:30PM 40.8167 -73.0833 270° West 65 75 400 -300 Descending New York TRACON
09:32PM 40.7952 -73.1002 259° West  Level Estimated
09:39PM 40.7952 -73.1002 90° East  Level Estimated